New Johnsonville, TN (37134)

9:59 PM CST on January 19, 2017 (GMT -0600)
River Oaks Drive | | Change Station

Elev 433 ft 36.01 °N, 87.97 °W | Updated 2 minutes ago

Rain
Rain
57.5 °F
Feels Like 57.5 °F
N
0.0
Wind Variable Wind from SSE

Today
High -- | Low -- °F
--% Chance of Precip.
Yesterday
High -- | Low -- °F
Precip. -- in
Pressure 29.70 in
Visibility 9.0 miles
Clouds Few 200 ft
Scattered Clouds 2800 ft
Overcast 3500 ft
Dew Point 58 °F
Humidity 100%
Rainfall 0.54 in
Snow Depth Not available.
7:00 AM 5:05 PM
Waning Gibbous, 48% visible
METAR KHOP 200358Z AUTO 18003KT 9SM R23/5500FT +DZ FEW002 SCT028 OVC035 13/13 A2969 RMK AO2 DZE21RAB21E31DZB31E32RAB32E56DZB56 SLP055 P0005 T01320132
Pressure 29.70 in
Visibility 9.0 miles
Clouds Few 200 ft
Scattered Clouds 2800 ft
Overcast 3500 ft
Dew Point 58 °F
Humidity 100%
Rainfall 0.54 in
Snow Depth Not available.
7:00 AM 5:05 PM
Waning Gibbous, 48% visible
METAR KHOP 200358Z AUTO 18003KT 9SM R23/5500FT +DZ FEW002 SCT028 OVC035 13/13 A2969 RMK AO2 DZE21RAB21E31DZB31E32RAB32E56DZB56 SLP055 P0005 T01320132

Get Your Daily Forecast Email!

Thanks for signing up!

Be on the lookout for a verification email in your inbox.

You'll start receiving the daily forecast at 8 AM.

×

10-Day Weather Forecast

Almanac

Astronomy

Jan. 19, 2017 Rise Set
Actual Time
Civil Twilight
Nautical Twilight
Astronomical Twilight
Moon
Length of Visible Light
Length of Day
Tomorrow will be .
, % of the Moon is Illuminated

Today's Extremes

State Highs State Lows

Community

WunderPhotos

Upload Photos

1,962,540 photos uploaded!

WunderBlog® & News

Nearby

Air Quality

  Air Quality AQ Index Pollutant
Not available.

Snow Depth

Station Depth Elevation

Earthquake Activity

City Distance Mag. Time & Date
Minimum magnitude displayed is 2.5.

Coastal Water Temperatures

Place Temperature

Stations

Nearby Weather Stations

Station Location Temp. Windchill Dew Point Humidity Wind Precip. Elev Updated Type
                   

Watches & Warnings

There are currently no watches in effect.